createdAt,value
2022-12-24T00:01:20.933Z,45.22
2022-12-24T00:03:48.381Z,42.53
2022-12-24T00:06:22.275Z,40.60
2022-12-24T00:08:51.140Z,46.58
2022-12-24T00:11:19.195Z,41.50
2022-12-24T00:13:47.039Z,40.58
2022-12-24T00:16:14.448Z,40.38
2022-12-24T00:18:46.290Z,33.53
2022-12-24T00:21:16.021Z,33.53
2022-12-24T00:23:44.089Z,38.28
2022-12-24T00:26:12.551Z,32.92
2022-12-24T00:28:40.887Z,27.98
2022-12-24T00:31:16.067Z,19.15
2022-12-24T00:33:43.406Z,24.52
2022-12-24T00:36:10.687Z,18.83
2022-12-24T00:38:38.748Z,8.82
2022-12-24T00:41:25.179Z,9.05
2022-12-24T00:43:59.732Z,4.72
2022-12-24T00:46:29.726Z,3.17
2022-12-24T00:48:57.285Z,4.55
2022-12-24T00:51:25.218Z,3.00
2022-12-24T00:53:53.891Z,9.75
2022-12-24T00:56:22.134Z,3.42
2022-12-24T00:58:49.937Z,6.93
2022-12-24T01:01:17.695Z,2.53
2022-12-24T01:03:44.954Z,2.03
2022-12-24T01:06:21.222Z,3.38
2022-12-24T01:08:51.707Z,1.60
2022-12-24T01:11:19.559Z,4.40
2022-12-24T01:13:46.661Z,3.35
2022-12-24T01:16:20.655Z,4.85
2022-12-24T01:18:48.118Z,2.30
2022-12-24T01:21:15.860Z,2.83
2022-12-24T01:23:43.417Z,1.13
2022-12-24T01:26:12.300Z,2.35
2022-12-24T01:28:39.598Z,0.75
2022-12-24T01:31:19.978Z,3.47
2022-12-24T01:33:49.109Z,3.47
2022-12-24T01:36:19.752Z,3.20
2022-12-24T01:38:46.877Z,1.80
2022-12-24T01:41:36.973Z,1.65
2022-12-24T01:44:36.435Z,1.10
2022-12-24T01:47:27.994Z,5.93
2022-12-24T01:50:02.484Z,2.65
2022-12-24T01:52:35.665Z,0.52
2022-12-24T01:55:16.294Z,2.72
2022-12-24T01:58:05.147Z,1.58
2022-12-24T02:00:32.287Z,0.80
2022-12-24T02:03:00.149Z,0.80
2022-12-24T02:05:50.387Z,0.95
2022-12-24T02:08:18.739Z,1.08
2022-12-24T02:10:48.238Z,1.17
2022-12-24T02:13:19.315Z,0.98
2022-12-24T02:16:02.467Z,1.05
2022-12-24T02:18:47.653Z,3.33
2022-12-24T02:21:51.614Z,3.55
2022-12-24T02:25:13.213Z,1.35
2022-12-24T02:28:11.487Z,0.55
2022-12-24T02:31:23.157Z,0.40
2022-12-24T02:34:09.187Z,0.65
2022-12-24T02:36:49.559Z,0.63
2022-12-24T02:39:38.279Z,0.40
2022-12-24T02:42:08.074Z,0.52
2022-12-24T02:45:02.115Z,1.00
2022-12-24T02:47:34.040Z,0.73
2022-12-24T02:50:04.285Z,0.95
2022-12-24T02:52:45.297Z,1.90
2022-12-24T02:55:21.523Z,1.20
2022-12-24T02:58:00.584Z,0.35
2022-12-24T03:00:31.060Z,0.75
2022-12-24T03:03:28.478Z,1.10
2022-12-24T03:06:50.574Z,0.90
2022-12-24T03:09:30.840Z,0.38
2022-12-24T03:12:15.696Z,0.40
2022-12-24T03:14:44.339Z,0.40
2022-12-24T03:17:12.288Z,0.65
2022-12-24T03:19:41.018Z,0.35
2022-12-24T03:22:11.768Z,0.60
2022-12-24T03:24:38.939Z,0.50
2022-12-24T03:27:09.005Z,1.02
2022-12-24T03:29:38.652Z,0.40
2022-12-24T03:32:05.902Z,0.38
2022-12-24T03:34:36.347Z,1.45
2022-12-24T03:37:04.087Z,0.70
2022-12-24T03:39:31.214Z,0.65
2022-12-24T03:41:58.408Z,3.45
2022-12-24T03:44:25.565Z,3.30
2022-12-24T03:46:52.744Z,1.05
2022-12-24T03:49:19.900Z,0.30
2022-12-24T03:51:47.028Z,0.30
2022-12-24T03:54:14.261Z,0.70
2022-12-24T03:56:41.399Z,0.77
2022-12-24T03:59:08.601Z,0.50
2022-12-24T04:01:35.843Z,0.60
2022-12-24T04:04:03.237Z,0.95
2022-12-24T04:06:30.390Z,1.15
2022-12-24T04:08:59.337Z,2.13
2022-12-24T04:11:26.425Z,0.98
2022-12-24T04:13:56.196Z,0.60
2022-12-24T04:16:23.489Z,1.73
2022-12-24T04:18:54.304Z,1.85
2022-12-24T04:21:21.466Z,1.60
2022-12-24T04:23:48.907Z,1.38
2022-12-24T04:26:16.007Z,0.82
2022-12-24T04:28:43.844Z,1.30
2022-12-24T04:31:17.610Z,1.48
2022-12-24T04:33:45.889Z,1.40
2022-12-24T04:36:17.340Z,2.45
2022-12-24T04:38:46.895Z,1.02
2022-12-24T04:41:23.729Z,0.90
2022-12-24T04:43:55.814Z,1.73
2022-12-24T04:46:30.509Z,1.58
2022-12-24T04:48:58.756Z,3.33
2022-12-24T04:51:27.422Z,1.10
2022-12-24T04:53:56.207Z,0.90
2022-12-24T04:56:27.506Z,0.82
2022-12-24T04:58:55.437Z,1.60
2022-12-24T05:01:26.568Z,1.20
2022-12-24T05:03:55.058Z,0.40
2022-12-24T05:06:27.158Z,1.42
2022-12-24T05:08:56.494Z,3.70
2022-12-24T05:11:24.685Z,2.53
2022-12-24T05:13:52.195Z,1.42
2022-12-24T05:16:22.785Z,3.72
2022-12-24T05:18:50.393Z,2.72
2022-12-24T05:21:21.748Z,0.70
2022-12-24T05:24:07.981Z,1.17
2022-12-24T05:26:50.348Z,2.33
2022-12-24T05:29:17.922Z,2.40
2022-12-24T05:31:48.278Z,2.30
2022-12-24T05:34:16.996Z,5.22
2022-12-24T05:36:45.031Z,1.73
2022-12-24T05:39:16.948Z,1.73
2022-12-24T05:41:45.077Z,4.25
2022-12-24T05:44:12.467Z,2.47
2022-12-24T05:46:39.864Z,7.82
2022-12-24T05:49:07.050Z,1.33
2022-12-24T05:51:34.361Z,2.65
2022-12-24T05:54:01.670Z,1.67
2022-12-24T05:56:29.033Z,1.80
2022-12-24T05:58:56.301Z,5.30
2022-12-24T06:01:24.771Z,1.27
2022-12-24T06:03:53.606Z,3.35
2022-12-24T06:06:25.474Z,4.75
2022-12-24T06:08:55.209Z,1.30
2022-12-24T06:11:26.801Z,4.63
2022-12-24T06:13:54.472Z,3.70
2022-12-24T06:16:23.447Z,2.13
2022-12-24T06:18:51.191Z,2.60
2022-12-24T06:21:19.527Z,5.47
2022-12-24T06:23:47.606Z,5.57
2022-12-24T06:26:19.395Z,2.03
2022-12-24T06:28:51.110Z,2.17
2022-12-24T06:31:21.491Z,3.78
2022-12-24T06:33:49.330Z,1.63
2022-12-24T06:36:20.935Z,1.25
2022-12-24T06:38:49.319Z,1.17
2022-12-24T06:41:17.593Z,3.55
2022-12-24T06:43:50.446Z,1.95
2022-12-24T06:46:18.886Z,2.20
2022-12-24T06:48:47.025Z,2.20
2022-12-24T06:51:16.947Z,1.23
2022-12-24T06:53:44.099Z,1.98
2022-12-24T06:56:14.563Z,2.90
2022-12-24T06:58:42.894Z,2.58
2022-12-24T07:01:14.187Z,2.80
2022-12-24T07:03:42.176Z,2.75
2022-12-24T07:06:24.132Z,1.75
2022-12-24T07:08:51.657Z,3.65
2022-12-24T07:11:19.492Z,3.13
2022-12-24T07:13:47.608Z,4.18
2022-12-24T07:16:15.772Z,6.47
2022-12-24T07:18:43.072Z,3.13
2022-12-24T07:21:10.948Z,1.98
2022-12-24T07:23:38.302Z,3.90
2022-12-24T07:26:07.267Z,1.38
2022-12-24T07:28:34.697Z,4.55
2022-12-24T07:31:02.085Z,2.95
2022-12-24T07:33:29.687Z,4.45
2022-12-24T07:36:06.308Z,3.88
2022-12-24T07:38:34.634Z,2.90
2022-12-24T07:41:02.206Z,6.65
2022-12-24T07:43:29.398Z,3.22
2022-12-24T07:45:57.903Z,1.58
2022-12-24T07:48:27.906Z,4.28
2022-12-24T07:50:55.955Z,2.88
2022-12-24T07:53:24.301Z,2.42
2022-12-24T07:55:51.649Z,3.50
2022-12-24T07:58:19.100Z,4.60
2022-12-24T08:00:46.528Z,5.43
2022-12-24T08:03:19.437Z,3.85
2022-12-24T08:05:47.269Z,2.85
2022-12-24T08:08:17.142Z,4.43
2022-12-24T08:10:45.990Z,5.35
2022-12-24T08:13:14.403Z,2.80
2022-12-24T08:15:42.424Z,2.97
2022-12-24T08:18:11.920Z,7.80
2022-12-24T08:20:41.046Z,5.15
2022-12-24T08:23:08.982Z,2.88
2022-12-24T08:25:36.629Z,4.30
2022-12-24T08:28:05.153Z,4.30
2022-12-24T08:30:32.435Z,6.35
2022-12-24T08:32:59.554Z,3.90
2022-12-24T08:35:26.762Z,4.53
2022-12-24T08:37:54.309Z,6.28
2022-12-24T08:40:21.560Z,4.90
2022-12-24T08:42:48.860Z,3.95
2022-12-24T08:45:16.246Z,3.90
2022-12-24T08:47:43.556Z,7.32
2022-12-24T08:50:11.716Z,4.30
2022-12-24T08:52:39.390Z,6.30
2022-12-24T08:55:07.119Z,4.38
2022-12-24T08:57:37.349Z,3.42
2022-12-24T09:00:06.971Z,3.33
2022-12-24T09:02:35.640Z,4.13
2022-12-24T09:05:06.564Z,4.93
2022-12-24T09:07:37.075Z,7.47
2022-12-24T09:10:05.307Z,2.50
2022-12-24T09:12:32.788Z,2.80
2022-12-24T09:15:03.875Z,4.15
2022-12-24T09:17:31.690Z,2.38
2022-12-24T09:19:58.796Z,2.42
2022-12-24T09:22:25.913Z,5.28
2022-12-24T09:24:54.872Z,4.10
2022-12-24T09:27:22.208Z,4.45
2022-12-24T09:29:49.482Z,6.13
2022-12-24T09:32:16.755Z,4.60
2022-12-24T09:34:43.979Z,4.38
2022-12-24T09:37:11.249Z,2.25
2022-12-24T09:39:38.346Z,1.85
2022-12-24T09:42:40.051Z,2.08
2022-12-24T09:45:39.461Z,4.10
2022-12-24T09:48:25.597Z,5.55
2022-12-24T09:53:37.544Z,3.33
2022-12-24T09:56:15.385Z,6.05
2022-12-24T09:58:53.276Z,5.13
2022-12-24T10:01:20.996Z,3.15
2022-12-24T10:03:48.520Z,4.65
2022-12-24T10:06:29.810Z,4.40
2022-12-24T10:09:10.542Z,4.25
2022-12-24T10:12:01.091Z,3.42
2022-12-24T10:14:39.996Z,6.20
2022-12-24T10:17:55.375Z,7.03
2022-12-24T10:20:41.054Z,3.35
2022-12-24T10:23:15.889Z,1.63
2022-12-24T10:25:55.908Z,4.07
2022-12-24T10:28:34.393Z,3.15
2022-12-24T10:31:07.311Z,4.57
2022-12-24T10:33:47.416Z,7.15
2022-12-24T10:36:27.658Z,6.38
2022-12-24T10:38:56.483Z,2.72
2022-12-24T10:41:27.635Z,3.70
2022-12-24T10:43:56.334Z,3.55
2022-12-24T10:46:52.799Z,4.75
2022-12-24T10:49:37.727Z,6.45
2022-12-24T10:52:19.474Z,2.95
2022-12-24T10:55:24.289Z,3.28
2022-12-24T10:58:15.665Z,6.60
2022-12-24T11:00:49.431Z,4.07
2022-12-24T11:03:19.507Z,4.55
2022-12-24T11:05:49.402Z,2.35
2022-12-24T11:08:20.353Z,3.72
2022-12-24T11:11:04.423Z,3.20
2022-12-24T11:13:55.532Z,3.63
2022-12-24T11:16:37.958Z,5.78
2022-12-24T11:19:16.058Z,4.72
2022-12-24T11:21:43.673Z,5.50
2022-12-24T11:24:13.674Z,5.13
2022-12-24T11:26:44.789Z,5.15
2022-12-24T11:29:28.312Z,6.22
2022-12-24T11:32:22.977Z,2.65
2022-12-24T11:34:50.057Z,6.32
2022-12-24T11:37:26.229Z,5.47
2022-12-24T11:40:01.829Z,6.13
2022-12-24T11:42:34.713Z,9.05
2022-12-24T11:45:28.542Z,4.80
2022-12-24T11:47:56.631Z,4.95
2022-12-24T11:50:35.339Z,3.42
2022-12-24T11:53:28.705Z,4.28
2022-12-24T11:56:02.762Z,4.07
2022-12-24T11:58:46.311Z,3.95
2022-12-24T12:01:48.525Z,4.20
2022-12-24T12:04:28.937Z,10.95
2022-12-24T12:07:11.150Z,3.08
2022-12-24T12:10:20.519Z,6.95
2022-12-24T12:13:20.881Z,11.52
2022-12-24T12:16:16.525Z,4.80
2022-12-24T12:18:57.216Z,6.95
2022-12-24T12:21:41.442Z,4.88
2022-12-24T12:24:33.564Z,4.63
2022-12-24T12:27:34.035Z,6.68
2022-12-24T12:30:17.889Z,9.35
2022-12-24T12:33:13.777Z,8.40
2022-12-24T12:35:44.892Z,3.00
2022-12-24T12:38:29.281Z,4.90
2022-12-24T12:41:10.877Z,5.15
2022-12-24T12:44:19.187Z,5.38
2022-12-24T12:47:16.758Z,7.75
2022-12-24T12:49:43.749Z,6.57
2022-12-24T12:52:51.604Z,3.80
2022-12-24T12:55:51.724Z,3.22
2022-12-24T12:58:47.090Z,3.42
2022-12-24T13:01:32.955Z,3.63
2022-12-24T13:07:26.004Z,5.82
2022-12-24T13:10:47.076Z,3.05
2022-12-24T13:13:29.361Z,3.00
2022-12-24T13:16:14.268Z,2.05
2022-12-24T13:19:13.161Z,3.05
2022-12-24T13:21:46.013Z,3.15
2022-12-24T13:24:28.252Z,3.00
2022-12-24T13:27:31.967Z,5.75
2022-12-24T13:30:33.163Z,3.25
2022-12-24T13:33:00.308Z,3.45
2022-12-24T13:35:37.273Z,3.30
2022-12-24T13:38:27.151Z,6.07
2022-12-24T13:40:55.945Z,1.85
2022-12-24T13:43:23.302Z,2.55
2022-12-24T13:45:53.350Z,6.13
2022-12-24T13:48:31.461Z,1.52
2022-12-24T13:51:17.645Z,5.05
2022-12-24T13:56:17.709Z,4.78
2022-12-24T13:58:50.424Z,0.95
2022-12-24T14:01:33.905Z,1.90
2022-12-24T14:04:05.545Z,1.98
2022-12-24T14:06:40.847Z,3.25
2022-12-24T14:09:12.379Z,3.17
2022-12-24T14:12:03.557Z,1.52
2022-12-24T14:14:38.679Z,2.10
2022-12-24T14:17:33.435Z,14.07
2022-12-24T14:20:02.446Z,3.05
2022-12-24T14:22:42.111Z,3.80
2022-12-24T14:25:23.477Z,1.75
2022-12-24T14:28:04.975Z,3.97
2022-12-24T14:30:32.918Z,2.28
2022-12-24T14:33:03.101Z,1.40
2022-12-24T14:35:37.179Z,3.20
2022-12-24T14:38:05.675Z,3.25
2022-12-24T14:40:38.941Z,3.47
2022-12-24T14:43:34.991Z,1.95
2022-12-24T14:46:38.240Z,2.33
2022-12-24T14:49:24.260Z,3.28
2022-12-24T14:52:30.615Z,2.78
2022-12-24T14:55:00.156Z,4.32
2022-12-24T14:57:27.760Z,3.85
2022-12-24T15:00:02.358Z,2.30
2022-12-24T15:02:39.736Z,2.88
2022-12-24T15:05:29.562Z,4.43
2022-12-24T15:08:10.139Z,3.53
2022-12-24T15:10:50.482Z,3.08
2022-12-24T15:13:42.944Z,2.72
2022-12-24T15:16:14.050Z,4.55
2022-12-24T15:18:53.791Z,3.72
2022-12-24T15:21:44.059Z,3.65
2022-12-24T15:24:32.916Z,2.63
2022-12-24T15:27:06.614Z,3.80
2022-12-24T15:29:42.660Z,5.13
2022-12-24T15:32:19.412Z,3.90
2022-12-24T15:34:50.975Z,10.18
2022-12-24T15:37:39.981Z,4.72
2022-12-24T15:40:22.047Z,6.60
2022-12-24T15:42:49.330Z,2.55
2022-12-24T15:45:28.506Z,4.50
2022-12-24T15:48:11.551Z,3.47
2022-12-24T15:50:45.954Z,3.92
2022-12-24T15:53:41.519Z,2.60
2022-12-24T15:56:13.629Z,2.75
2022-12-24T15:58:45.639Z,3.15
2022-12-24T16:01:15.743Z,6.97
2022-12-24T16:03:52.107Z,3.95
2022-12-24T16:06:20.398Z,2.97
2022-12-24T16:08:48.601Z,5.85
2022-12-24T16:11:20.537Z,5.97
2022-12-24T16:13:53.730Z,4.95
2022-12-24T16:16:32.243Z,10.25
2022-12-24T16:19:02.485Z,3.92
2022-12-24T16:21:40.995Z,5.70
2022-12-24T16:24:30.629Z,5.35
2022-12-24T16:26:58.266Z,8.25
2022-12-24T16:29:27.608Z,5.03
2022-12-24T16:31:58.128Z,9.07
2022-12-24T16:34:31.260Z,8.65
2022-12-24T16:37:00.316Z,8.65
2022-12-24T16:39:33.709Z,10.30
2022-12-24T16:42:22.764Z,7.35
2022-12-24T16:44:53.427Z,7.03
2022-12-24T16:47:27.445Z,3.72
2022-12-24T16:49:56.348Z,8.32
2022-12-24T16:52:29.168Z,7.43
2022-12-24T16:54:57.457Z,6.22
2022-12-24T16:57:25.018Z,10.73
2022-12-24T16:59:52.895Z,5.72
2022-12-24T17:02:23.427Z,4.28
2022-12-24T17:04:51.007Z,3.88
2022-12-24T17:07:21.020Z,6.35
2022-12-24T17:09:48.599Z,5.35
2022-12-24T17:12:15.756Z,7.07
2022-12-24T17:14:43.127Z,4.18
2022-12-24T17:17:28.857Z,6.15
2022-12-24T17:19:57.519Z,7.65
2022-12-24T17:22:27.784Z,6.00
2022-12-24T17:24:56.247Z,3.67
2022-12-24T17:27:24.007Z,4.65
2022-12-24T17:29:51.147Z,3.28
2022-12-24T17:32:18.768Z,4.60
2022-12-24T17:34:46.068Z,9.25
2022-12-24T17:37:13.581Z,5.68
2022-12-24T17:39:40.692Z,4.60
2022-12-24T17:42:07.947Z,7.18
2022-12-24T17:44:35.296Z,5.40
2022-12-24T17:47:05.218Z,7.65
2022-12-24T17:49:35.747Z,7.43
2022-12-24T17:52:04.739Z,7.07
2022-12-24T17:54:32.035Z,8.27
2022-12-24T17:56:59.285Z,7.40
2022-12-24T17:59:26.602Z,3.55
2022-12-24T18:01:53.742Z,7.53
2022-12-24T18:04:21.005Z,3.95
2022-12-24T18:06:49.728Z,6.22
2022-12-24T18:09:17.739Z,7.43
2022-12-24T18:11:45.093Z,6.55
2022-12-24T18:14:14.310Z,4.90
2022-12-24T18:16:42.931Z,6.72
2022-12-24T18:19:12.590Z,3.53
2022-12-24T18:21:40.044Z,6.53
2022-12-24T18:24:08.047Z,7.22
2022-12-24T18:26:35.529Z,6.78
2022-12-24T18:29:06.433Z,6.65
2022-12-24T18:31:34.378Z,5.45
2022-12-24T18:34:04.663Z,9.38
2022-12-24T18:36:32.488Z,6.57
2022-12-24T18:39:00.052Z,5.53
2022-12-24T18:41:31.460Z,7.53
2022-12-24T18:43:59.627Z,6.72
2022-12-24T18:46:33.257Z,5.85
2022-12-24T18:49:02.061Z,6.38
2022-12-24T18:51:33.199Z,5.13
2022-12-24T18:54:00.544Z,12.05
2022-12-24T18:56:27.844Z,5.43
2022-12-24T18:58:57.716Z,4.63
2022-12-24T19:01:32.439Z,4.53
2022-12-24T19:04:00.671Z,4.63
2022-12-24T19:06:28.170Z,4.03
2022-12-24T19:08:57.925Z,7.82
2022-12-24T19:11:28.926Z,4.50
2022-12-24T19:13:58.175Z,4.38
2022-12-24T19:16:26.838Z,5.95
2022-12-24T19:19:00.998Z,6.15
2022-12-24T19:21:28.358Z,12.25
2022-12-24T19:23:55.551Z,6.40
2022-12-24T19:26:23.047Z,8.40
2022-12-24T19:28:50.740Z,7.05
2022-12-24T19:31:27.025Z,6.47
2022-12-24T19:33:57.019Z,5.00
2022-12-24T19:36:30.171Z,7.05
2022-12-24T19:38:58.659Z,4.95
2022-12-24T19:41:28.905Z,8.35
2022-12-24T19:44:00.189Z,6.88
2022-12-24T19:46:31.409Z,6.63
2022-12-24T19:49:01.732Z,6.35
2022-12-24T19:51:29.762Z,7.28
2022-12-24T19:53:59.119Z,17.73
2022-12-24T19:56:31.187Z,8.43
2022-12-24T19:58:59.705Z,8.77
2022-12-24T20:01:30.276Z,14.88
2022-12-24T20:03:57.990Z,12.85
2022-12-24T20:06:29.444Z,8.65
2022-12-24T20:09:06.436Z,19.35
2022-12-24T20:11:34.917Z,10.95
2022-12-24T20:14:04.343Z,15.90
2022-12-24T20:16:32.646Z,16.15
2022-12-24T20:19:04.515Z,15.02
2022-12-24T20:21:32.654Z,12.07
2022-12-24T20:24:00.389Z,16.63
2022-12-24T20:26:29.615Z,10.57
2022-12-24T20:28:57.420Z,7.35
2022-12-24T20:31:30.315Z,9.18
2022-12-24T20:33:59.738Z,8.98
2022-12-24T20:36:29.049Z,9.65
2022-12-24T20:38:58.096Z,6.13
2022-12-24T20:41:28.332Z,8.35
2022-12-24T20:43:57.964Z,8.18
2022-12-24T20:46:28.792Z,6.45
2022-12-24T20:48:56.306Z,8.40
2022-12-24T20:51:29.864Z,6.80
2022-12-24T20:54:00.851Z,7.07
2022-12-24T20:56:30.819Z,6.47
2022-12-24T20:59:00.481Z,8.70
2022-12-24T21:01:28.718Z,8.55
2022-12-24T21:03:57.000Z,7.63
2022-12-24T21:06:25.535Z,10.05
2022-12-24T21:08:54.683Z,5.70
2022-12-24T21:11:41.505Z,9.18
2022-12-24T21:14:09.665Z,12.52
2022-12-24T21:16:38.264Z,9.27
2022-12-24T21:19:07.503Z,11.15
2022-12-24T21:21:36.249Z,8.13
2022-12-24T21:24:06.154Z,5.32
2022-12-24T21:26:34.483Z,12.13
2022-12-24T21:29:04.528Z,15.27
2022-12-24T21:31:32.356Z,5.80
2022-12-24T21:33:59.606Z,9.80
2022-12-24T21:36:27.040Z,14.50
2022-12-24T21:38:55.186Z,6.32
2022-12-24T21:41:23.804Z,7.93
2022-12-24T21:43:50.985Z,10.52
2022-12-24T21:46:25.262Z,11.80
2022-12-24T21:49:17.554Z,6.43
2022-12-24T21:51:46.865Z,7.18
2022-12-24T21:54:23.570Z,8.57
2022-12-24T21:57:11.163Z,8.75
2022-12-24T21:59:41.278Z,8.98
2022-12-24T22:02:12.440Z,8.13
2022-12-24T22:04:40.226Z,7.95
2022-12-24T22:07:38.111Z,6.78
2022-12-24T22:10:24.933Z,11.57
2022-12-24T22:12:53.592Z,10.05
2022-12-24T22:15:21.231Z,7.38
2022-12-24T22:17:51.941Z,6.28
2022-12-24T22:20:19.206Z,7.03
2022-12-24T22:22:48.980Z,5.15
2022-12-24T22:25:17.141Z,5.90
2022-12-24T22:27:44.364Z,7.30
2022-12-24T22:30:11.991Z,7.65
2022-12-24T22:32:39.312Z,8.25
2022-12-24T22:35:06.885Z,9.20
2022-12-24T22:37:34.027Z,6.40
2022-12-24T22:40:01.146Z,12.77
2022-12-24T22:42:30.643Z,8.55
2022-12-24T22:44:57.723Z,6.57
2022-12-24T22:47:25.268Z,10.07
2022-12-24T22:49:52.562Z,7.63
2022-12-24T22:52:19.845Z,7.88
2022-12-24T22:54:47.011Z,4.82
2022-12-24T22:57:14.207Z,6.97
2022-12-24T22:59:41.482Z,7.85
2022-12-24T23:02:08.802Z,6.57
2022-12-24T23:04:40.691Z,2.78
2022-12-24T23:07:10.255Z,6.88
2022-12-24T23:09:38.049Z,9.32
2022-12-24T23:12:05.963Z,6.13
2022-12-24T23:14:51.912Z,7.70
2022-12-24T23:17:19.106Z,6.63
2022-12-24T23:19:46.322Z,6.28
2022-12-24T23:22:13.535Z,6.53
2022-12-24T23:24:41.393Z,10.75
2022-12-24T23:27:08.756Z,10.68
2022-12-24T23:29:35.875Z,7.80
2022-12-24T23:32:03.211Z,5.85
2022-12-24T23:34:30.362Z,8.18
2022-12-24T23:36:58.340Z,8.02
2022-12-24T23:39:25.530Z,5.93
2022-12-24T23:41:52.623Z,5.60
2022-12-24T23:44:19.727Z,6.00
2022-12-24T23:46:46.939Z,4.80
2022-12-24T23:49:15.370Z,6.13
2022-12-24T23:51:42.601Z,3.50
2022-12-24T23:54:09.908Z,10.80
2022-12-24T23:56:37.477Z,7.47
2022-12-24T23:59:04.832Z,6.38
